createdAt,value
2023-05-05T00:00:23.845Z,1.83
2023-05-05T00:02:51.347Z,1.95
2023-05-05T00:05:18.770Z,1.10
2023-05-05T00:07:46.181Z,1.50
2023-05-05T00:10:15.502Z,1.38
2023-05-05T00:12:43.114Z,1.17
2023-05-05T00:15:10.799Z,1.10
2023-05-05T00:17:38.341Z,0.95
2023-05-05T00:20:06.611Z,1.17
2023-05-05T00:22:34.448Z,1.50
2023-05-05T00:25:02.055Z,1.50
2023-05-05T00:27:32.729Z,1.55
2023-05-05T00:30:00.043Z,1.70
2023-05-05T00:32:27.532Z,1.88
2023-05-05T00:34:55.186Z,1.35
2023-05-05T00:37:22.744Z,1.85
2023-05-05T00:39:50.713Z,1.58
2023-05-05T00:42:20.931Z,1.70
2023-05-05T00:44:48.408Z,1.50
2023-05-05T00:47:16.862Z,1.90
2023-05-05T00:49:44.277Z,1.60
2023-05-05T00:52:12.102Z,1.42
2023-05-05T00:54:39.635Z,1.70
2023-05-05T00:57:07.882Z,1.65
2023-05-05T00:59:35.600Z,1.67
2023-05-05T01:02:03.254Z,1.38
2023-05-05T01:04:30.635Z,1.60
2023-05-05T01:07:08.983Z,1.60
2023-05-05T01:09:39.802Z,1.20
2023-05-05T01:12:13.376Z,1.40
2023-05-05T01:17:18.642Z,1.52
2023-05-05T01:19:52.390Z,1.48
2023-05-05T01:22:23.846Z,1.85
2023-05-05T01:25:10.009Z,1.95
2023-05-05T01:27:46.564Z,1.58
2023-05-05T01:30:29.619Z,1.77
2023-05-05T01:33:01.455Z,1.70
2023-05-05T01:35:33.889Z,1.88
2023-05-05T01:38:03.829Z,1.60
2023-05-05T01:40:33.096Z,2.15
2023-05-05T01:43:01.011Z,2.33
2023-05-05T01:45:30.615Z,1.70
2023-05-05T01:47:59.562Z,2.00
2023-05-05T01:50:28.988Z,2.45
2023-05-05T01:52:57.082Z,2.33
2023-05-05T01:55:26.334Z,2.33
2023-05-05T01:57:55.203Z,2.50
2023-05-05T02:00:25.288Z,2.53
2023-05-05T02:02:53.913Z,2.08
2023-05-05T02:05:22.854Z,3.00
2023-05-05T02:07:51.043Z,2.20
2023-05-05T02:10:18.777Z,2.22
2023-05-05T02:12:47.091Z,2.28
2023-05-05T02:15:16.477Z,2.00
2023-05-05T02:17:44.478Z,2.40
2023-05-05T02:20:13.494Z,2.65
2023-05-05T02:22:41.574Z,2.65
2023-05-05T02:25:09.970Z,2.20
2023-05-05T02:27:44.304Z,3.17
2023-05-05T02:30:14.097Z,3.10
2023-05-05T02:32:45.658Z,2.25
2023-05-05T02:35:30.360Z,2.60
2023-05-05T02:38:01.767Z,2.58
2023-05-05T02:40:35.288Z,2.38
2023-05-05T02:43:07.181Z,2.63
2023-05-05T02:45:34.799Z,2.45
2023-05-05T02:48:05.848Z,2.80
2023-05-05T02:50:37.927Z,2.42
2023-05-05T02:53:31.650Z,2.65
2023-05-05T02:56:05.275Z,2.83
2023-05-05T02:58:43.300Z,2.05
2023-05-05T03:01:31.781Z,2.50
2023-05-05T03:04:08.162Z,2.60
2023-05-05T03:06:44.186Z,2.50
2023-05-05T03:09:22.834Z,1.85
2023-05-05T03:11:58.794Z,3.08
2023-05-05T03:14:28.106Z,2.38
2023-05-05T03:16:56.665Z,2.55
2023-05-05T03:19:25.382Z,2.60
2023-05-05T03:21:58.592Z,2.50
2023-05-05T03:24:26.098Z,2.83
2023-05-05T03:27:03.256Z,2.63
2023-05-05T03:29:35.650Z,2.78
2023-05-05T03:32:04.918Z,2.90
2023-05-05T03:34:33.286Z,3.42
2023-05-05T03:37:03.640Z,2.22
2023-05-05T03:39:31.218Z,2.70
2023-05-05T03:41:59.532Z,2.78
2023-05-05T03:44:31.192Z,2.95
2023-05-05T03:46:58.689Z,2.85
2023-05-05T03:49:26.802Z,3.38
2023-05-05T03:51:54.787Z,2.95
2023-05-05T03:54:22.844Z,3.33
2023-05-05T03:56:50.334Z,3.25
2023-05-05T03:59:17.978Z,2.78
2023-05-05T04:01:46.712Z,3.20
2023-05-05T04:04:14.428Z,3.40
2023-05-05T04:06:41.862Z,3.25
2023-05-05T04:09:10.000Z,3.60
2023-05-05T04:11:38.319Z,4.22
2023-05-05T04:14:05.969Z,3.40
2023-05-05T04:16:33.451Z,3.80
2023-05-05T04:19:01.122Z,3.55
2023-05-05T04:21:29.138Z,3.20
2023-05-05T04:23:57.679Z,3.70
2023-05-05T04:26:25.462Z,3.55
2023-05-05T04:28:52.985Z,3.55
2023-05-05T04:31:21.137Z,4.15
2023-05-05T04:33:48.609Z,3.42
2023-05-05T04:36:16.168Z,3.08
2023-05-05T04:38:43.761Z,3.33
2023-05-05T04:41:11.934Z,3.60
2023-05-05T04:43:41.276Z,4.13
2023-05-05T04:46:09.096Z,4.72
2023-05-05T04:48:38.562Z,4.30
2023-05-05T04:51:07.286Z,3.65
2023-05-05T04:53:35.304Z,3.88
2023-05-05T04:56:03.401Z,3.83
2023-05-05T04:58:31.916Z,3.67
2023-05-05T05:00:59.166Z,3.50
2023-05-05T05:03:26.874Z,3.63
2023-05-05T05:05:54.555Z,4.10
2023-05-05T05:08:22.069Z,3.83
2023-05-05T05:10:49.592Z,3.53
2023-05-05T05:13:17.664Z,3.95
2023-05-05T05:15:46.007Z,5.68
2023-05-05T05:18:13.573Z,3.95
2023-05-05T05:20:41.208Z,3.80
2023-05-05T05:23:09.761Z,3.97
2023-05-05T05:25:43.066Z,4.05
2023-05-05T05:28:11.884Z,3.65
2023-05-05T05:30:45.390Z,3.42
2023-05-05T05:33:12.982Z,3.65
2023-05-05T05:35:41.525Z,3.55
2023-05-05T05:38:10.139Z,3.20
2023-05-05T05:40:38.098Z,3.85
2023-05-05T05:43:05.740Z,3.45
2023-05-05T05:45:34.448Z,3.67
2023-05-05T05:48:03.954Z,3.72
2023-05-05T05:50:32.115Z,3.95
2023-05-05T05:53:00.318Z,4.13
2023-05-05T05:55:28.704Z,4.40
2023-05-05T05:57:56.092Z,3.58
2023-05-05T06:00:24.468Z,5.03
2023-05-05T06:02:59.169Z,6.22
2023-05-05T06:05:30.459Z,4.45
2023-05-05T06:07:59.359Z,4.20
2023-05-05T06:10:29.477Z,3.60
2023-05-05T06:13:12.501Z,3.95
2023-05-05T06:15:44.120Z,3.58
2023-05-05T06:18:13.615Z,3.33
2023-05-05T06:20:43.280Z,3.20
2023-05-05T06:23:12.031Z,3.70
2023-05-05T06:25:44.300Z,3.70
2023-05-05T06:28:11.848Z,4.25
2023-05-05T06:30:39.290Z,3.50
2023-05-05T06:33:06.813Z,3.58
2023-05-05T06:35:34.129Z,3.33
2023-05-05T06:38:01.500Z,2.85
2023-05-05T06:40:28.889Z,3.60
2023-05-05T06:42:56.476Z,3.45
2023-05-05T06:45:29.054Z,4.05
2023-05-05T06:47:59.807Z,3.38
2023-05-05T06:50:27.180Z,3.60
2023-05-05T06:52:54.756Z,3.38
2023-05-05T06:55:23.530Z,3.42
2023-05-05T06:57:51.255Z,3.05
2023-05-05T07:00:18.880Z,2.90
2023-05-05T07:02:47.451Z,3.67
2023-05-05T07:05:15.061Z,3.25
2023-05-05T07:07:54.729Z,3.33
2023-05-05T07:10:22.743Z,3.60
2023-05-05T07:12:50.414Z,2.65
2023-05-05T07:15:27.533Z,3.30
2023-05-05T07:17:57.127Z,2.88
2023-05-05T07:20:25.025Z,2.70
2023-05-05T07:22:52.480Z,3.10
2023-05-05T07:25:19.934Z,2.80
2023-05-05T07:27:47.548Z,2.97
2023-05-05T07:30:17.561Z,2.53
2023-05-05T07:32:46.730Z,2.75
2023-05-05T07:35:14.422Z,2.88
2023-05-05T07:37:42.140Z,3.00
2023-05-05T07:40:10.156Z,3.17
2023-05-05T07:42:37.965Z,2.97
2023-05-05T07:45:06.060Z,2.92
2023-05-05T07:47:33.484Z,3.45
2023-05-05T07:50:01.668Z,2.40
2023-05-05T07:52:44.303Z,2.30
2023-05-05T07:55:15.549Z,1.83
2023-05-05T07:57:45.264Z,2.15
2023-05-05T08:00:13.603Z,1.90
2023-05-05T08:02:41.499Z,2.10
2023-05-05T08:05:11.708Z,2.00
2023-05-05T08:07:41.699Z,2.00
2023-05-05T08:10:12.649Z,2.28
2023-05-05T08:12:40.396Z,2.30
2023-05-05T08:15:08.504Z,2.50
2023-05-05T08:17:46.257Z,1.70
2023-05-05T08:20:13.929Z,2.30
2023-05-05T08:22:42.774Z,2.58
2023-05-05T08:25:11.223Z,1.85
2023-05-05T08:27:40.275Z,1.40
2023-05-05T08:30:08.329Z,1.60
2023-05-05T08:32:35.820Z,2.28
2023-05-05T08:35:06.753Z,2.00
2023-05-05T08:37:34.763Z,1.65
2023-05-05T08:40:02.109Z,1.90
2023-05-05T08:42:38.136Z,1.35
2023-05-05T08:45:08.113Z,1.67
2023-05-05T08:47:39.554Z,1.08
2023-05-05T08:50:08.177Z,1.27
2023-05-05T08:52:40.548Z,1.10
2023-05-05T08:55:24.111Z,1.10
2023-05-05T08:57:53.235Z,1.60
2023-05-05T09:00:21.202Z,1.80
2023-05-05T09:02:49.085Z,1.67
2023-05-05T09:05:16.877Z,1.52
2023-05-05T09:07:45.190Z,1.25
2023-05-05T09:10:19.307Z,1.73
2023-05-05T09:12:46.783Z,1.70
2023-05-05T09:15:15.742Z,2.05
2023-05-05T09:17:43.668Z,1.70
2023-05-05T09:20:12.241Z,1.73
2023-05-05T09:22:44.081Z,2.00
2023-05-05T09:25:13.049Z,1.50
2023-05-05T09:27:41.795Z,2.20
2023-05-05T09:30:09.955Z,2.08
2023-05-05T09:32:45.078Z,2.17
2023-05-05T09:35:12.819Z,2.53
2023-05-05T09:37:40.195Z,2.38
2023-05-05T09:40:12.123Z,1.83
2023-05-05T09:42:43.007Z,1.17
2023-05-05T09:45:20.450Z,0.90
2023-05-05T09:47:58.785Z,0.40
2023-05-05T09:50:30.687Z,0.60
2023-05-05T09:52:59.485Z,0.60
2023-05-05T09:55:27.166Z,0.55
2023-05-05T09:57:54.579Z,0.40
2023-05-05T10:00:38.628Z,0.75
2023-05-05T10:03:06.816Z,1.00
2023-05-05T10:05:34.495Z,0.50
2023-05-05T10:08:13.510Z,0.50
2023-05-05T10:10:54.515Z,0.47
2023-05-05T10:13:22.757Z,0.38
2023-05-05T10:15:51.479Z,0.30
2023-05-05T10:18:25.852Z,0.40
2023-05-05T10:20:59.690Z,0.20
2023-05-05T10:23:50.229Z,0.55
2023-05-05T10:26:17.840Z,0.45
2023-05-05T10:28:46.109Z,0.50
2023-05-05T10:31:25.721Z,0.50
2023-05-05T10:33:57.069Z,1.10
2023-05-05T10:36:25.708Z,0.60
2023-05-05T10:38:57.407Z,0.70
2023-05-05T10:41:26.215Z,0.52
2023-05-05T10:43:55.719Z,0.88
2023-05-05T10:46:23.374Z,0.73
2023-05-05T10:49:26.852Z,0.95
2023-05-05T10:51:57.855Z,0.85
2023-05-05T10:54:40.992Z,0.88
2023-05-05T10:57:10.642Z,1.67
2023-05-05T10:59:38.510Z,1.42
2023-05-05T11:02:36.126Z,2.88
2023-05-05T11:05:21.675Z,2.30
2023-05-05T11:07:50.578Z,2.70
2023-05-05T11:10:23.000Z,3.33
2023-05-05T11:12:53.234Z,2.75
2023-05-05T11:15:27.029Z,3.03
2023-05-05T11:18:03.159Z,3.85
2023-05-05T11:20:53.061Z,4.10
2023-05-05T11:23:20.251Z,4.68
2023-05-05T11:25:47.761Z,3.42
2023-05-05T11:28:16.666Z,3.60
2023-05-05T11:30:59.178Z,4.70
2023-05-05T11:33:33.405Z,3.55
2023-05-05T11:36:01.858Z,3.78
2023-05-05T11:38:31.141Z,4.75
2023-05-05T11:41:14.041Z,4.10
2023-05-05T11:43:42.376Z,2.75
2023-05-05T11:46:16.998Z,2.17
2023-05-05T11:48:47.027Z,1.27
2023-05-05T11:51:15.050Z,1.10
2023-05-05T11:53:49.181Z,1.10
2023-05-05T11:56:21.890Z,0.70
2023-05-05T11:58:49.809Z,1.10
2023-05-05T12:01:17.289Z,0.50
2023-05-05T12:03:45.855Z,1.00
2023-05-05T12:06:13.849Z,0.90
2023-05-05T12:08:41.972Z,1.85
2023-05-05T12:11:10.670Z,1.02
2023-05-05T12:13:38.084Z,1.20
2023-05-05T12:16:11.896Z,1.20
2023-05-05T12:18:39.934Z,0.95
2023-05-05T12:21:17.646Z,1.45
2023-05-05T12:23:47.845Z,1.42
2023-05-05T12:26:32.432Z,1.10
2023-05-05T12:29:00.789Z,1.48
2023-05-05T12:31:41.546Z,1.52
2023-05-05T12:34:09.948Z,1.48
2023-05-05T12:36:37.667Z,1.50
2023-05-05T12:39:05.904Z,1.90
2023-05-05T12:41:33.958Z,1.48
2023-05-05T12:44:03.003Z,1.75
2023-05-05T12:46:31.914Z,2.03
2023-05-05T12:49:05.177Z,2.30
2023-05-05T12:51:33.502Z,2.25
2023-05-05T12:54:11.175Z,2.55
2023-05-05T12:56:40.423Z,1.98
2023-05-05T12:59:08.987Z,2.58
2023-05-05T13:01:37.051Z,2.97
2023-05-05T13:04:05.393Z,2.65
2023-05-05T13:06:33.088Z,2.92
2023-05-05T13:09:00.593Z,2.28
2023-05-05T13:11:28.210Z,2.35
2023-05-05T13:13:55.563Z,2.78
2023-05-05T13:16:23.063Z,2.42
2023-05-05T13:18:53.067Z,2.13
2023-05-05T13:21:20.406Z,1.88
2023-05-05T13:23:47.990Z,2.13
2023-05-05T13:26:15.462Z,1.90
2023-05-05T13:28:42.842Z,1.35
2023-05-05T13:31:10.167Z,2.03
2023-05-05T13:33:37.601Z,1.70
2023-05-05T13:36:05.423Z,2.05
2023-05-05T13:38:33.077Z,2.03
2023-05-05T13:41:00.704Z,2.10
2023-05-05T13:43:28.068Z,2.45
2023-05-05T13:46:02.827Z,1.73
2023-05-05T13:48:36.154Z,2.05
2023-05-05T13:51:03.787Z,1.95
2023-05-05T13:53:31.981Z,1.90
2023-05-05T13:55:59.346Z,1.85
2023-05-05T13:58:26.849Z,2.90
2023-05-05T14:00:55.222Z,2.70
2023-05-05T14:03:23.954Z,2.35
2023-05-05T14:05:51.346Z,2.88
2023-05-05T14:08:19.899Z,2.70
2023-05-05T14:10:48.069Z,2.78
2023-05-05T14:13:16.399Z,3.45
2023-05-05T14:15:43.764Z,2.33
2023-05-05T14:18:11.298Z,2.70
2023-05-05T14:20:38.737Z,2.08
2023-05-05T14:23:06.361Z,2.97
2023-05-05T14:25:34.004Z,2.72
2023-05-05T14:28:01.560Z,2.58
2023-05-05T14:30:28.893Z,2.47
2023-05-05T14:32:56.854Z,2.63
2023-05-05T14:35:24.706Z,2.80
2023-05-05T14:37:52.156Z,2.80
2023-05-05T14:40:19.726Z,2.70
2023-05-05T14:42:49.868Z,3.95
2023-05-05T14:45:17.220Z,3.30
2023-05-05T14:47:44.493Z,2.95
2023-05-05T14:50:11.828Z,2.97
2023-05-05T14:52:40.425Z,3.15
2023-05-05T14:55:08.333Z,2.80
2023-05-05T14:57:35.905Z,3.30
2023-05-05T15:00:04.112Z,2.95
2023-05-05T15:02:32.002Z,3.30
2023-05-05T15:04:59.519Z,3.38
2023-05-05T15:07:28.439Z,3.35
2023-05-05T15:09:56.580Z,3.65
2023-05-05T15:12:24.236Z,3.08
2023-05-05T15:14:51.941Z,3.47
2023-05-05T15:17:19.365Z,3.53
2023-05-05T15:19:50.419Z,3.33
2023-05-05T15:22:18.212Z,2.92
2023-05-05T15:24:48.119Z,3.45
2023-05-05T15:27:15.652Z,2.80
2023-05-05T15:29:43.321Z,3.10
2023-05-05T15:32:12.995Z,3.45
2023-05-05T15:34:40.652Z,3.50
2023-05-05T15:37:07.927Z,2.97
2023-05-05T15:39:35.733Z,3.53
2023-05-05T15:42:03.717Z,2.42
2023-05-05T15:44:31.640Z,2.70
2023-05-05T15:46:59.095Z,3.17
2023-05-05T15:49:26.864Z,3.10
2023-05-05T15:51:54.395Z,2.90
2023-05-05T15:54:21.778Z,3.58
2023-05-05T15:56:49.344Z,3.30
2023-05-05T15:59:22.972Z,2.65
2023-05-05T16:01:50.698Z,3.08
2023-05-05T16:04:18.236Z,3.17
2023-05-05T16:06:45.788Z,3.70
2023-05-05T16:09:16.246Z,3.25
2023-05-05T16:11:43.942Z,3.65
2023-05-05T16:14:11.380Z,3.72
2023-05-05T16:16:38.886Z,3.15
2023-05-05T16:19:06.721Z,3.50
2023-05-05T16:21:38.555Z,3.65
2023-05-05T16:24:06.239Z,2.92
2023-05-05T16:26:35.929Z,3.28
2023-05-05T16:29:03.888Z,3.30
2023-05-05T16:31:33.991Z,4.10
2023-05-05T16:34:01.527Z,3.33
2023-05-05T16:36:29.262Z,3.42
2023-05-05T16:38:57.197Z,2.78
2023-05-05T16:41:25.979Z,3.40
2023-05-05T16:43:56.547Z,2.85
2023-05-05T16:46:23.923Z,3.47
2023-05-05T16:48:51.469Z,3.38
2023-05-05T16:51:19.191Z,3.55
2023-05-05T16:53:48.839Z,3.10
2023-05-05T16:56:16.911Z,3.42
2023-05-05T16:58:44.604Z,3.38
2023-05-05T17:01:12.042Z,4.03
2023-05-05T17:03:41.730Z,3.92
2023-05-05T17:06:09.724Z,3.25
2023-05-05T17:08:37.216Z,4.07
2023-05-05T17:11:04.951Z,3.53
2023-05-05T17:13:32.929Z,4.20
2023-05-05T17:16:00.479Z,4.38
2023-05-05T17:18:28.064Z,4.00
2023-05-05T17:20:55.684Z,4.68
2023-05-05T17:23:24.437Z,5.47
2023-05-05T17:25:52.070Z,4.32
2023-05-05T17:28:20.746Z,5.18
2023-05-05T17:30:48.455Z,4.97
2023-05-05T17:33:18.458Z,4.82
2023-05-05T17:35:46.033Z,4.97
2023-05-05T17:38:13.829Z,4.57
2023-05-05T17:40:41.333Z,4.78
2023-05-05T17:43:09.111Z,5.00
2023-05-05T17:45:36.729Z,4.53
2023-05-05T17:48:04.475Z,3.75
2023-05-05T17:50:32.143Z,4.72
2023-05-05T17:52:59.500Z,5.32
2023-05-05T17:55:26.860Z,4.25
2023-05-05T17:57:55.925Z,4.10
2023-05-05T18:00:23.678Z,4.40
2023-05-05T18:02:51.165Z,4.05
2023-05-05T18:05:18.642Z,3.90
2023-05-05T18:07:46.730Z,4.03
2023-05-05T18:10:14.172Z,4.65
2023-05-05T18:12:41.582Z,4.57
2023-05-05T18:15:09.740Z,4.68
2023-05-05T18:17:37.397Z,5.40
2023-05-05T18:20:06.924Z,4.65
2023-05-05T18:22:36.486Z,5.05
2023-05-05T18:27:32.667Z,5.50
2023-05-05T18:30:01.178Z,4.93
2023-05-05T18:32:28.733Z,4.85
2023-05-05T18:34:56.196Z,4.88
2023-05-05T18:37:24.001Z,4.97
2023-05-05T18:39:51.794Z,4.57
2023-05-05T18:42:19.339Z,4.45
2023-05-05T18:44:46.661Z,4.57
2023-05-05T18:47:14.207Z,4.93
2023-05-05T18:49:43.722Z,4.90
2023-05-05T18:52:11.219Z,5.45
2023-05-05T18:54:38.589Z,4.22
2023-05-05T18:57:07.971Z,4.32
2023-05-05T18:59:35.767Z,4.35
2023-05-05T19:02:03.282Z,3.90
2023-05-05T19:04:32.114Z,3.88
2023-05-05T19:07:03.357Z,3.78
2023-05-05T19:09:34.204Z,4.13
2023-05-05T19:12:03.832Z,4.00
2023-05-05T19:14:31.244Z,3.80
2023-05-05T19:16:59.598Z,8.95
2023-05-05T19:19:28.723Z,4.20
2023-05-05T19:21:58.098Z,4.10
2023-05-05T19:24:26.609Z,4.05
2023-05-05T19:26:54.275Z,4.85
2023-05-05T19:29:21.895Z,4.10
2023-05-05T19:31:52.276Z,4.00
2023-05-05T19:34:22.334Z,3.72
2023-05-05T19:36:49.797Z,3.85
2023-05-05T19:39:17.282Z,3.63
2023-05-05T19:41:44.884Z,4.00
2023-05-05T19:44:12.435Z,3.70
2023-05-05T19:46:40.004Z,3.63
2023-05-05T19:49:07.537Z,3.95
2023-05-05T19:51:35.077Z,4.07
2023-05-05T19:54:02.416Z,3.80
2023-05-05T19:56:29.898Z,3.53
2023-05-05T19:58:58.900Z,3.90
2023-05-05T20:01:26.863Z,4.20
2023-05-05T20:03:55.548Z,3.70
2023-05-05T20:06:23.325Z,3.83
2023-05-05T20:08:50.848Z,4.25
2023-05-05T20:11:22.034Z,4.80
2023-05-05T20:13:52.950Z,3.53
2023-05-05T20:16:22.037Z,4.32
2023-05-05T20:18:53.024Z,4.05
2023-05-05T20:21:21.189Z,4.70
2023-05-05T20:24:00.457Z,4.25
2023-05-05T20:26:28.789Z,3.70
2023-05-05T20:28:57.383Z,3.92
2023-05-05T20:31:26.128Z,4.13
2023-05-05T20:33:53.500Z,4.88
2023-05-05T20:36:21.194Z,4.70
2023-05-05T20:38:48.709Z,4.07
2023-05-05T20:41:16.266Z,4.55
2023-05-05T20:43:43.801Z,4.57
2023-05-05T20:46:13.493Z,4.60
2023-05-05T20:48:43.078Z,4.65
2023-05-05T20:51:13.120Z,4.43
2023-05-05T20:53:43.313Z,4.78
2023-05-05T20:56:11.209Z,5.13
2023-05-05T20:58:38.648Z,3.92
2023-05-05T21:01:06.174Z,4.30
2023-05-05T21:03:33.727Z,4.95
2023-05-05T21:06:02.412Z,4.68
2023-05-05T21:08:30.662Z,5.05
2023-05-05T21:10:58.587Z,4.75
2023-05-05T21:13:26.039Z,5.35
2023-05-05T21:15:55.739Z,4.60
2023-05-05T21:18:25.782Z,4.53
2023-05-05T21:21:03.853Z,5.22
2023-05-05T21:23:34.250Z,4.80
2023-05-05T21:26:03.164Z,4.95
2023-05-05T21:28:31.016Z,4.80
2023-05-05T21:31:20.694Z,4.68
2023-05-05T21:33:48.926Z,4.30
2023-05-05T21:36:19.056Z,4.53
2023-05-05T21:38:49.622Z,4.40
2023-05-05T21:41:17.030Z,5.13
2023-05-05T21:43:44.505Z,5.13
2023-05-05T21:46:12.077Z,5.03
2023-05-05T21:48:41.591Z,6.13
2023-05-05T21:51:09.051Z,5.22
2023-05-05T21:53:37.791Z,5.55
2023-05-05T21:56:05.875Z,5.82
2023-05-05T21:58:33.470Z,5.85
2023-05-05T22:01:01.225Z,4.80
2023-05-05T22:03:28.815Z,4.90
2023-05-05T22:05:56.111Z,5.20
2023-05-05T22:08:23.537Z,5.22
2023-05-05T22:10:51.002Z,4.65
2023-05-05T22:13:18.553Z,5.22
2023-05-05T22:15:47.494Z,5.80
2023-05-05T22:18:15.519Z,5.50
2023-05-05T22:20:43.352Z,4.63
2023-05-05T22:23:10.726Z,5.35
2023-05-05T22:25:38.325Z,4.05
2023-05-05T22:28:06.031Z,5.05
2023-05-05T22:30:33.615Z,5.35
2023-05-05T22:33:01.146Z,5.28
2023-05-05T22:35:28.585Z,4.32
2023-05-05T22:37:56.053Z,4.30
2023-05-05T22:40:26.410Z,5.22
2023-05-05T22:42:53.923Z,3.92
2023-05-05T22:45:22.825Z,4.10
2023-05-05T22:47:51.221Z,3.20
2023-05-05T22:50:18.823Z,3.97
2023-05-05T22:52:46.415Z,3.50
2023-05-05T22:55:15.005Z,3.08
2023-05-05T22:57:42.922Z,3.28
2023-05-05T23:00:10.866Z,2.72
2023-05-05T23:02:38.474Z,2.70
2023-05-05T23:05:06.818Z,2.95
2023-05-05T23:07:34.224Z,2.85
2023-05-05T23:10:01.686Z,2.53
2023-05-05T23:12:29.135Z,2.80
2023-05-05T23:14:56.514Z,2.47
2023-05-05T23:17:23.943Z,2.08
2023-05-05T23:19:51.439Z,2.70
2023-05-05T23:22:18.944Z,2.50
2023-05-05T23:24:46.412Z,2.65
2023-05-05T23:27:13.920Z,2.65
2023-05-05T23:29:41.306Z,2.28
2023-05-05T23:32:09.123Z,2.78
2023-05-05T23:34:36.771Z,2.10
2023-05-05T23:37:06.200Z,2.47
2023-05-05T23:39:34.750Z,2.50
2023-05-05T23:42:02.272Z,2.90
2023-05-05T23:44:29.829Z,2.72
2023-05-05T23:46:57.383Z,2.85
2023-05-05T23:49:26.407Z,2.92
2023-05-05T23:51:53.902Z,2.97
2023-05-05T23:54:21.519Z,3.13
2023-05-05T23:56:49.111Z,3.03
2023-05-05T23:59:16.679Z,3.53
